createdAt,value
2019-01-08T00:04:10.388Z,32.46
2019-01-08T00:10:05.414Z,29.38
2019-01-08T00:16:00.390Z,28.86
2019-01-08T00:21:55.382Z,24.91
2019-01-08T00:27:50.404Z,23.68
2019-01-08T00:33:45.378Z,26.47
2019-01-08T00:39:40.415Z,27.21
2019-01-08T00:45:35.406Z,23.33
2019-01-08T00:51:30.430Z,23.17
2019-01-08T00:57:25.452Z,25.46
2019-01-08T01:03:20.430Z,23.4
2019-01-08T01:09:15.388Z,22.21
2019-01-08T01:15:10.427Z,20.68
2019-01-08T01:21:05.422Z,24.6
2019-01-08T01:27:00.451Z,23.06
2019-01-08T01:32:55.488Z,24.94
2019-01-08T01:38:50.425Z,21.96
2019-01-08T01:44:45.416Z,21.29
2019-01-08T01:50:40.463Z,18.6
2019-01-08T01:56:35.435Z,23.96
2019-01-08T02:02:30.455Z,22.84
2019-01-08T02:08:25.456Z,20.65
2019-01-08T02:14:20.464Z,21.85
2019-01-08T02:20:15.460Z,24.59
2019-01-08T02:26:10.448Z,23.07
2019-01-08T02:32:05.521Z,23
2019-01-08T02:38:00.534Z,20.59
2019-01-08T02:43:55.499Z,19.82
2019-01-08T02:49:50.511Z,20.08
2019-01-08T02:55:45.467Z,21.69
2019-01-08T03:01:40.480Z,24.62
2019-01-08T03:07:35.468Z,28.98
2019-01-08T03:13:30.467Z,28.47
2019-01-08T03:19:25.480Z,25.78
2019-01-08T03:25:20.483Z,22.87
2019-01-08T03:31:15.468Z,23.26
2019-01-08T03:37:10.487Z,25.18
2019-01-08T03:43:05.473Z,25.37
2019-01-08T03:49:00.500Z,29.19
2019-01-08T03:54:55.474Z,28.65
2019-01-08T04:00:50.541Z,28.5
2019-01-08T04:06:45.498Z,27.83
2019-01-08T04:12:40.521Z,25.12
2019-01-08T04:18:35.507Z,27.92
2019-01-08T04:24:30.552Z,29.54
2019-01-08T04:30:25.494Z,29.57
2019-01-08T04:36:20.513Z,28.15
2019-01-08T04:42:15.584Z,24
2019-01-08T04:48:10.501Z,23.51
2019-01-08T04:54:05.573Z,22.62
2019-01-08T05:00:00.573Z,25.81
2019-01-08T05:05:55.521Z,27.38
2019-01-08T05:11:50.542Z,28.3
2019-01-08T05:17:45.515Z,27.66
2019-01-08T05:23:40.552Z,24.84
2019-01-08T05:29:35.585Z,22.87
2019-01-08T05:35:30.527Z,26.5
2019-01-08T05:41:25.579Z,28.98
2019-01-08T05:47:20.575Z,27.19
2019-01-08T05:53:15.535Z,28.63
2019-01-08T05:59:10.559Z,30.29
2019-01-08T06:05:05.545Z,25.46
2019-01-08T06:11:00.584Z,23.52
2019-01-08T06:16:55.555Z,21.79
2019-01-08T06:22:50.577Z,23.97
2019-01-08T06:28:45.570Z,29.04
2019-01-08T06:34:40.562Z,25.39
2019-01-08T06:40:35.584Z,28.89
2019-01-08T06:46:30.578Z,26.43
2019-01-08T06:52:25.574Z,26.15
2019-01-08T06:58:20.577Z,25.19
2019-01-08T07:04:15.572Z,25.81
2019-01-08T07:10:10.591Z,24.89
2019-01-08T07:16:05.595Z,24.05
2019-01-08T07:22:00.587Z,24.86
2019-01-08T07:27:55.593Z,29.3
2019-01-08T07:33:50.586Z,29.5
2019-01-08T07:39:45.600Z,29.6
2019-01-08T07:45:40.620Z,28.82
2019-01-08T07:51:35.644Z,28.32
2019-01-08T07:57:30.611Z,27.83
2019-01-08T08:03:25.628Z,28.53
2019-01-08T08:09:20.613Z,31.66
2019-01-08T08:15:15.606Z,62.68
2019-01-08T08:21:10.709Z,37.55
2019-01-08T08:27:05.670Z,32.99
2019-01-08T08:33:00.645Z,31.02
2019-01-08T08:38:55.617Z,32.86
2019-01-08T08:44:50.647Z,30.49
2019-01-08T08:50:45.651Z,29.67
2019-01-08T08:56:40.641Z,29.11
2019-01-08T09:02:35.621Z,31.07
2019-01-08T09:08:30.678Z,37.7
2019-01-08T09:14:25.627Z,38.5
2019-01-08T09:20:20.657Z,37.61
2019-01-08T09:26:15.636Z,36.68
2019-01-08T09:32:10.646Z,49.29
2019-01-08T09:38:05.708Z,39.74
2019-01-08T09:44:00.661Z,38.12
2019-01-08T09:49:55.700Z,33.43
2019-01-08T09:55:50.654Z,44.97
2019-01-08T10:01:45.679Z,73.49
2019-01-08T10:07:40.703Z,70.2
2019-01-08T10:13:35.685Z,73.66
2019-01-08T10:19:30.686Z,66.99
2019-01-08T10:25:25.702Z,76.07
2019-01-08T10:31:20.672Z,70.69
2019-01-08T10:37:15.696Z,62.03
2019-01-08T10:43:10.703Z,84.15
2019-01-08T10:49:05.699Z,84.88
2019-01-08T10:55:00.741Z,75.03
2019-01-08T11:00:55.704Z,68.2
2019-01-08T11:06:50.712Z,59.64
2019-01-08T11:12:45.688Z,55.26
2019-01-08T11:18:40.744Z,49.57
2019-01-08T11:24:35.752Z,53.46
2019-01-08T11:30:30.712Z,60.48
2019-01-08T11:36:25.740Z,64.9
2019-01-08T11:42:20.717Z,61.91
2019-01-08T11:48:15.710Z,62.6
2019-01-08T11:54:10.744Z,62.27
2019-01-08T12:00:05.766Z,74.3
2019-01-08T12:06:00.741Z,80.76
2019-01-08T12:11:55.749Z,85.42
2019-01-08T12:17:50.756Z,91.03
2019-01-08T12:23:45.749Z,90.71
2019-01-08T12:29:40.751Z,92.19
2019-01-08T12:35:35.751Z,84
2019-01-08T12:41:30.741Z,89.57
2019-01-08T12:47:25.759Z,90.51
2019-01-08T12:53:20.753Z,86.16
2019-01-08T12:59:15.818Z,91.77
2019-01-08T13:05:10.789Z,98.26
2019-01-08T13:11:05.783Z,90.02
2019-01-08T13:17:00.780Z,89.73
2019-01-08T13:22:55.817Z,91.81
2019-01-08T13:28:50.823Z,88.49
2019-01-08T13:34:45.782Z,95.55
2019-01-08T13:40:40.788Z,101.26
2019-01-08T13:46:35.776Z,95.04
2019-01-08T13:52:30.779Z,92.56
2019-01-08T13:58:25.802Z,100.49
2019-01-08T14:04:20.870Z,98.53
2019-01-08T14:10:15.819Z,98
2019-01-08T14:16:10.806Z,95.31
2019-01-08T14:22:05.803Z,92.17
2019-01-08T14:28:00.826Z,94.96
2019-01-08T14:33:55.811Z,96.72
2019-01-08T14:39:50.823Z,96.16
2019-01-08T14:45:45.820Z,93.95
2019-01-08T14:51:40.828Z,99.81
2019-01-08T14:57:35.842Z,103.34
2019-01-08T15:03:30.815Z,102.44
2019-01-08T15:09:25.825Z,103.98
2019-01-08T15:15:20.891Z,103.7
2019-01-08T15:21:15.839Z,109.72
2019-01-08T15:27:10.833Z,118.49
2019-01-08T15:33:05.872Z,111.38
2019-01-08T15:39:00.828Z,107.84
2019-01-08T15:44:55.849Z,110.75
2019-01-08T15:50:50.881Z,106.39
2019-01-08T15:56:45.838Z,105.92
2019-01-08T16:02:40.912Z,105.95
2019-01-08T16:08:35.868Z,106.89
2019-01-08T16:14:30.900Z,110.17
2019-01-08T16:20:25.920Z,105.89
2019-01-08T16:26:20.866Z,102.78
2019-01-08T16:32:15.880Z,99.9
2019-01-08T16:38:10.903Z,100.87
2019-01-08T16:44:05.878Z,96.07
2019-01-08T16:50:00.937Z,59.42
2019-01-08T16:55:55.899Z,52
2019-01-08T17:01:50.889Z,55.33
2019-01-08T17:07:45.887Z,45.64
2019-01-08T17:13:40.889Z,41.76
2019-01-08T17:19:35.908Z,56
2019-01-08T17:25:30.929Z,107.96
2019-01-08T17:31:25.904Z,138.23
2019-01-08T17:37:20.906Z,123.73
2019-01-08T17:43:15.908Z,126.72
2019-01-08T17:49:10.937Z,121.16
2019-01-08T17:55:05.935Z,120.91
2019-01-08T18:01:00.935Z,121
2019-01-08T18:06:55.975Z,121.61
2019-01-08T18:12:50.931Z,124.19
2019-01-08T18:18:45.923Z,132.33
2019-01-08T18:24:40.985Z,124.58
2019-01-08T18:30:35.953Z,127.36
2019-01-08T18:36:30.957Z,131.77
2019-01-08T18:42:25.943Z,133.53
2019-01-08T18:48:20.979Z,143.17
2019-01-08T18:54:15.949Z,133.85
2019-01-08T19:00:10.950Z,134.12
2019-01-08T19:06:05.960Z,135.78
2019-01-08T19:12:00.975Z,105.38
2019-01-08T19:17:55.967Z,108.57
2019-01-08T19:23:50.986Z,106.94
2019-01-08T19:29:46.040Z,156.41
2019-01-08T19:35:40.982Z,159.89
2019-01-08T19:41:35.978Z,158.37
2019-01-08T19:47:30.987Z,164.01
2019-01-08T19:53:26.015Z,158.62
2019-01-08T19:59:20.997Z,160.25
2019-01-08T20:05:15.987Z,160.58
2019-01-08T20:11:11.017Z,156.13
2019-01-08T20:17:06.133Z,156.49
2019-01-08T20:23:00.998Z,158.59
2019-01-08T20:28:55.981Z,162.5
2019-01-08T20:34:51.069Z,167.09
2019-01-08T20:40:46.024Z,155.28
2019-01-08T20:46:41.019Z,158.25
2019-01-08T20:52:36.008Z,163.83
2019-01-08T20:58:31.014Z,167.89
2019-01-08T21:04:26.032Z,129.87
2019-01-08T21:10:21.010Z,104.33
2019-01-08T21:16:16.047Z,152.16
2019-01-08T21:22:11.021Z,120.96
2019-01-08T21:28:06.046Z,99.57
2019-01-08T21:34:01.041Z,71.73
2019-01-08T21:39:56.022Z,50.45
2019-01-08T21:45:51.053Z,50.89
2019-01-08T21:51:46.047Z,47.35
2019-01-08T21:57:41.090Z,35.6
2019-01-08T22:03:36.070Z,24.02
2019-01-08T22:09:31.067Z,17
2019-01-08T22:15:26.062Z,18.05
2019-01-08T22:21:21.040Z,20.3
2019-01-08T22:27:16.105Z,15.86
2019-01-08T22:33:11.059Z,14.34
2019-01-08T22:39:06.065Z,14.58
2019-01-08T22:45:01.118Z,14.05
2019-01-08T22:50:56.130Z,12.36
2019-01-08T22:56:51.150Z,18.23
2019-01-08T23:02:46.089Z,26.14
2019-01-08T23:08:41.078Z,16.48
2019-01-08T23:14:36.091Z,23.92
2019-01-08T23:20:31.143Z,34.1
2019-01-08T23:26:26.097Z,46.1
2019-01-08T23:32:21.110Z,21.46
2019-01-08T23:38:16.202Z,19.5
2019-01-08T23:44:11.173Z,22.92
2019-01-08T23:50:06.159Z,24.11
2019-01-08T23:56:01.088Z,23.25
